Terminal Aerodrome Forecast
Issued by NWS

Current Version | Previous Version | Text Only | Print | Product List | Glossary On
Versions: 1 2 3 4 5 6 7 8 9 10 11 12 13 14 15 16 17 18 19 20 21 22 23 24
802
FTUS46 KEKA 131120
TAFCEC
TAF
KCEC 131120Z 1312/1412 07004KT P6SM SCT250
     FM131400 05005KT P6SM SCT250
     FM131600 VRB06KT P6SM FEW250
     FM132000 27008KT P6SM SCT250
     FM140000 16005KT P6SM SCT100 BKN250
     FM141000 15005KT P6SM OVC050=

USA.gov is the U.S. government's official web portal to all federal, state and local government web resources and services.